createdAt,value
2023-03-21T00:00:55.812Z,18.05
2023-03-21T00:03:24.140Z,20.23
2023-03-21T00:05:53.859Z,17.08
2023-03-21T00:08:23.049Z,16.42
2023-03-21T00:10:57.258Z,15.68
2023-03-21T00:13:32.494Z,16.83
2023-03-21T00:16:12.221Z,17.13
2023-03-21T00:18:52.483Z,16.70
2023-03-21T00:24:10.208Z,12.95
2023-03-21T00:26:38.557Z,15.27
2023-03-21T00:29:06.602Z,16.55
2023-03-21T00:31:35.924Z,12.02
2023-03-21T00:34:03.907Z,14.63
2023-03-21T00:36:32.529Z,12.88
2023-03-21T00:39:01.167Z,12.68
2023-03-21T00:41:42.112Z,15.02
2023-03-21T00:44:13.759Z,11.33
2023-03-21T00:46:51.637Z,12.98
2023-03-21T00:49:33.704Z,12.82
2023-03-21T00:52:14.743Z,11.48
2023-03-21T00:54:44.919Z,12.35
2023-03-21T00:57:12.827Z,12.27
2023-03-21T00:59:40.793Z,11.70
2023-03-21T01:02:14.941Z,13.35
2023-03-21T01:04:43.249Z,14.65
2023-03-21T01:07:11.189Z,10.93
2023-03-21T01:09:39.926Z,10.73
2023-03-21T01:12:07.972Z,11.13
2023-03-21T01:14:35.914Z,10.35
2023-03-21T01:17:04.132Z,9.98
2023-03-21T01:19:48.637Z,10.20
2023-03-21T01:22:19.012Z,9.32
2023-03-21T01:24:54.183Z,10.02
2023-03-21T01:27:27.366Z,9.52
2023-03-21T01:29:58.698Z,8.85
2023-03-21T01:32:26.748Z,8.70
2023-03-21T01:34:56.199Z,8.68
2023-03-21T01:37:26.391Z,8.40
2023-03-21T01:39:54.337Z,8.13
2023-03-21T01:42:22.252Z,7.95
2023-03-21T01:44:55.398Z,7.50
2023-03-21T01:47:23.383Z,7.22
2023-03-21T01:49:53.512Z,7.60
2023-03-21T01:52:36.579Z,8.90
2023-03-21T01:55:07.662Z,8.85
2023-03-21T01:57:51.847Z,5.65
2023-03-21T02:00:29.637Z,9.10
2023-03-21T02:03:11.301Z,9.82
2023-03-21T02:05:50.063Z,8.40
2023-03-21T02:08:22.273Z,9.02
2023-03-21T02:10:52.982Z,6.68
2023-03-21T02:13:20.883Z,7.35
2023-03-21T02:15:59.209Z,8.35
2023-03-21T02:18:39.333Z,6.50
2023-03-21T02:21:51.203Z,7.95
2023-03-21T02:24:59.534Z,8.63
2023-03-21T02:27:33.088Z,9.88
2023-03-21T02:30:52.122Z,6.30
2023-03-21T02:33:48.226Z,7.28
2023-03-21T02:36:25.684Z,6.55
2023-03-21T02:39:02.074Z,6.47
2023-03-21T02:41:40.720Z,4.63
2023-03-21T02:44:17.981Z,8.35
2023-03-21T02:46:59.667Z,5.20
2023-03-21T02:49:43.027Z,5.80
2023-03-21T02:52:25.614Z,3.72
2023-03-21T02:55:04.951Z,5.22
2023-03-21T02:57:42.609Z,6.82
2023-03-21T03:00:17.881Z,6.47
2023-03-21T03:02:47.551Z,6.70
2023-03-21T03:05:21.631Z,5.97
2023-03-21T03:08:14.724Z,4.65
2023-03-21T03:10:57.471Z,6.47
2023-03-21T03:13:39.198Z,5.68
2023-03-21T03:16:19.991Z,6.68
2023-03-21T03:18:53.876Z,4.55
2023-03-21T03:21:28.182Z,5.57
2023-03-21T03:24:00.561Z,7.65
2023-03-21T03:26:37.731Z,6.20
2023-03-21T03:29:09.752Z,7.30
2023-03-21T03:31:43.430Z,5.85
2023-03-21T03:34:16.680Z,5.05
2023-03-21T03:36:56.238Z,7.85
2023-03-21T03:39:31.284Z,8.43
2023-03-21T03:42:15.433Z,4.60
2023-03-21T03:44:50.159Z,5.75
2023-03-21T03:47:32.867Z,6.45
2023-03-21T03:50:10.143Z,6.25
2023-03-21T03:52:53.584Z,5.93
2023-03-21T03:55:27.154Z,5.20
2023-03-21T03:57:56.963Z,5.28
2023-03-21T04:00:25.717Z,4.85
2023-03-21T04:02:53.821Z,3.33
2023-03-21T04:05:21.885Z,4.35
2023-03-21T04:07:50.915Z,5.47
2023-03-21T04:10:20.532Z,4.90
2023-03-21T04:12:48.415Z,4.70
2023-03-21T04:15:19.138Z,6.57
2023-03-21T04:17:47.285Z,4.57
2023-03-21T04:20:23.849Z,4.78
2023-03-21T04:22:58.388Z,5.97
2023-03-21T04:25:33.851Z,6.50
2023-03-21T04:28:02.447Z,5.60
2023-03-21T04:30:34.334Z,3.60
2023-03-21T04:33:05.029Z,4.80
2023-03-21T04:35:36.459Z,6.60
2023-03-21T04:38:08.155Z,5.38
2023-03-21T04:40:39.202Z,4.07
2023-03-21T04:43:07.329Z,3.40
2023-03-21T04:45:36.637Z,3.25
2023-03-21T04:48:04.896Z,4.18
2023-03-21T04:50:32.934Z,4.40
2023-03-21T04:53:00.916Z,4.15
2023-03-21T04:55:31.712Z,4.80
2023-03-21T04:57:59.738Z,4.05
2023-03-21T05:00:27.638Z,3.95
2023-03-21T05:02:58.644Z,5.47
2023-03-21T05:05:26.563Z,5.07
2023-03-21T05:07:54.474Z,3.30
2023-03-21T05:10:22.528Z,5.25
2023-03-21T05:12:50.427Z,5.45
2023-03-21T05:15:18.422Z,4.03
2023-03-21T05:17:49.733Z,6.07
2023-03-21T05:20:19.723Z,4.55
2023-03-21T05:22:51.473Z,3.10
2023-03-21T05:25:21.276Z,4.28
2023-03-21T05:27:54.245Z,4.30
2023-03-21T05:30:22.380Z,7.15
2023-03-21T05:32:51.069Z,5.30
2023-03-21T05:35:20.587Z,5.80
2023-03-21T05:37:48.492Z,4.28
2023-03-21T05:40:16.505Z,3.42
2023-03-21T05:42:44.392Z,5.38
2023-03-21T05:45:12.994Z,4.03
2023-03-21T05:47:41.019Z,5.60
2023-03-21T05:50:10.149Z,4.47
2023-03-21T05:52:39.474Z,3.40
2023-03-21T05:55:08.171Z,3.72
2023-03-21T05:57:40.892Z,5.17
2023-03-21T06:00:10.679Z,6.13
2023-03-21T06:02:39.943Z,4.85
2023-03-21T06:05:08.672Z,4.28
2023-03-21T06:07:40.511Z,5.38
2023-03-21T06:10:09.349Z,2.65
2023-03-21T06:12:37.487Z,4.65
2023-03-21T06:15:06.565Z,3.63
2023-03-21T06:17:34.553Z,2.90
2023-03-21T06:20:04.532Z,4.13
2023-03-21T06:22:32.768Z,4.72
2023-03-21T06:25:02.253Z,5.70
2023-03-21T06:27:32.841Z,2.25
2023-03-21T06:30:00.945Z,4.45
2023-03-21T06:32:29.317Z,3.22
2023-03-21T06:34:57.255Z,4.35
2023-03-21T06:37:26.510Z,5.28
2023-03-21T06:39:55.577Z,4.47
2023-03-21T06:42:25.232Z,2.60
2023-03-21T06:44:53.195Z,2.65
2023-03-21T06:47:21.154Z,3.47
2023-03-21T06:49:49.115Z,3.03
2023-03-21T06:52:17.054Z,4.53
2023-03-21T06:54:47.496Z,3.15
2023-03-21T06:57:15.481Z,4.88
2023-03-21T06:59:47.631Z,4.07
2023-03-21T07:02:15.976Z,4.28
2023-03-21T07:04:44.111Z,3.45
2023-03-21T07:07:12.102Z,2.60
2023-03-21T07:09:41.178Z,2.85
2023-03-21T07:12:10.111Z,5.47
2023-03-21T07:14:38.000Z,4.07
2023-03-21T07:17:07.357Z,4.95
2023-03-21T07:19:35.338Z,4.82
2023-03-21T07:22:03.277Z,4.95
2023-03-21T07:24:31.269Z,5.63
2023-03-21T07:26:59.246Z,3.85
2023-03-21T07:29:27.178Z,3.70
2023-03-21T07:31:55.276Z,4.35
2023-03-21T07:34:24.668Z,6.80
2023-03-21T07:36:52.635Z,4.40
2023-03-21T07:39:21.232Z,3.35
2023-03-21T07:41:49.200Z,2.58
2023-03-21T07:44:17.157Z,5.82
2023-03-21T07:46:45.295Z,4.07
2023-03-21T07:49:13.357Z,4.45
2023-03-21T07:51:42.663Z,3.28
2023-03-21T07:54:10.633Z,3.78
2023-03-21T07:56:38.617Z,4.75
2023-03-21T07:59:07.424Z,5.60
2023-03-21T08:01:35.397Z,3.88
2023-03-21T08:04:03.348Z,5.05
2023-03-21T08:06:32.599Z,3.33
2023-03-21T08:09:03.592Z,3.97
2023-03-21T08:11:32.359Z,4.43
2023-03-21T08:14:01.205Z,2.72
2023-03-21T08:16:29.401Z,4.63
2023-03-21T08:18:57.364Z,3.35
2023-03-21T08:21:25.538Z,5.10
2023-03-21T08:23:54.130Z,4.18
2023-03-21T08:26:26.575Z,7.35
2023-03-21T08:28:54.680Z,4.03
2023-03-21T08:31:22.827Z,4.68
2023-03-21T08:33:54.377Z,5.03
2023-03-21T08:36:22.876Z,2.80
2023-03-21T08:38:54.552Z,4.20
2023-03-21T08:41:25.984Z,2.70
2023-03-21T08:43:53.949Z,3.30
2023-03-21T08:46:21.907Z,3.97
2023-03-21T08:48:49.900Z,2.05
2023-03-21T08:51:17.954Z,4.28
2023-03-21T08:53:45.882Z,3.83
2023-03-21T08:56:16.868Z,4.55
2023-03-21T08:58:47.418Z,3.30
2023-03-21T09:01:15.892Z,3.83
2023-03-21T09:03:44.052Z,4.72
2023-03-21T09:06:14.327Z,2.78
2023-03-21T09:08:43.380Z,2.30
2023-03-21T09:11:11.716Z,4.03
2023-03-21T09:13:39.716Z,3.60
2023-03-21T09:16:09.848Z,4.55
2023-03-21T09:18:48.810Z,4.40
2023-03-21T09:21:18.605Z,2.72
2023-03-21T09:23:50.693Z,3.20
2023-03-21T09:26:19.191Z,3.95
2023-03-21T09:28:47.439Z,3.15
2023-03-21T09:31:21.650Z,7.00
2023-03-21T09:33:50.668Z,4.80
2023-03-21T09:36:20.869Z,3.20
2023-03-21T09:38:51.012Z,3.15
2023-03-21T09:41:30.652Z,2.30
2023-03-21T09:44:11.552Z,4.60
2023-03-21T09:46:46.382Z,6.13
2023-03-21T09:49:20.469Z,3.38
2023-03-21T09:51:52.865Z,4.88
2023-03-21T09:54:27.331Z,4.93
2023-03-21T09:56:58.292Z,4.80
2023-03-21T09:59:33.372Z,4.07
2023-03-21T10:02:04.075Z,3.20
2023-03-21T10:04:33.072Z,3.80
2023-03-21T10:07:04.098Z,3.20
2023-03-21T10:09:38.626Z,3.80
2023-03-21T10:12:09.440Z,2.83
2023-03-21T10:14:41.985Z,3.20
2023-03-21T10:17:23.297Z,4.03
2023-03-21T10:19:57.037Z,4.63
2023-03-21T10:22:25.008Z,3.65
2023-03-21T10:24:55.503Z,2.35
2023-03-21T10:27:23.441Z,3.55
2023-03-21T10:29:53.191Z,4.75
2023-03-21T10:32:22.997Z,5.85
2023-03-21T10:37:26.072Z,5.40
2023-03-21T10:39:56.298Z,4.13
2023-03-21T10:42:27.115Z,4.30
2023-03-21T10:44:57.461Z,3.58
2023-03-21T10:47:29.285Z,2.80
2023-03-21T10:50:08.104Z,5.13
2023-03-21T10:52:39.612Z,4.03
2023-03-21T10:55:21.467Z,3.22
2023-03-21T10:57:50.133Z,4.38
2023-03-21T11:00:22.520Z,8.63
2023-03-21T11:02:54.397Z,4.03
2023-03-21T11:05:25.598Z,4.90
2023-03-21T11:08:01.702Z,3.38
2023-03-21T11:10:32.286Z,3.78
2023-03-21T11:13:05.374Z,4.95
2023-03-21T11:15:41.710Z,3.92
2023-03-21T11:18:19.749Z,5.93
2023-03-21T11:20:52.996Z,3.42
2023-03-21T11:23:22.065Z,4.20
2023-03-21T11:25:51.902Z,2.97
2023-03-21T11:28:22.403Z,5.45
2023-03-21T11:30:54.240Z,3.78
2023-03-21T11:33:28.132Z,6.57
2023-03-21T11:36:01.063Z,2.60
2023-03-21T11:38:32.755Z,3.92
2023-03-21T11:41:02.883Z,5.28
2023-03-21T11:43:33.534Z,6.03
2023-03-21T11:46:07.736Z,6.00
2023-03-21T11:48:41.980Z,2.42
2023-03-21T11:51:18.378Z,3.60
2023-03-21T11:53:51.182Z,3.47
2023-03-21T11:56:29.069Z,3.67
2023-03-21T11:59:15.975Z,4.18
2023-03-21T12:01:54.758Z,3.78
2023-03-21T12:04:37.625Z,4.95
2023-03-21T12:07:15.758Z,4.97
2023-03-21T12:09:48.065Z,3.90
2023-03-21T12:12:38.757Z,2.85
2023-03-21T12:15:14.364Z,5.30
2023-03-21T12:17:54.992Z,5.05
2023-03-21T12:20:35.137Z,1.60
2023-03-21T12:23:17.127Z,4.88
2023-03-21T12:25:48.776Z,3.55
2023-03-21T12:28:33.001Z,3.92
2023-03-21T12:31:11.983Z,6.35
2023-03-21T12:33:52.551Z,2.88
2023-03-21T12:36:37.043Z,3.58
2023-03-21T12:39:19.231Z,3.03
2023-03-21T12:41:59.240Z,2.53
2023-03-21T12:44:30.524Z,2.78
2023-03-21T12:47:02.355Z,2.28
2023-03-21T12:49:36.160Z,2.60
2023-03-21T12:52:09.255Z,3.08
2023-03-21T12:54:42.804Z,4.18
2023-03-21T12:57:17.905Z,4.50
2023-03-21T12:59:51.511Z,5.78
2023-03-21T13:02:24.899Z,3.13
2023-03-21T13:05:04.584Z,2.80
2023-03-21T13:07:37.250Z,4.00
2023-03-21T13:10:14.982Z,3.22
2023-03-21T13:12:50.083Z,4.47
2023-03-21T13:15:35.462Z,5.10
2023-03-21T13:18:13.442Z,8.02
2023-03-21T13:20:47.029Z,4.35
2023-03-21T13:23:22.076Z,4.38
2023-03-21T13:28:22.398Z,3.72
2023-03-21T13:30:51.740Z,2.75
2023-03-21T13:33:25.899Z,4.65
2023-03-21T13:36:05.346Z,5.40
2023-03-21T13:38:40.137Z,4.00
2023-03-21T13:41:10.441Z,3.92
2023-03-21T13:43:45.055Z,3.75
2023-03-21T13:46:14.696Z,4.15
2023-03-21T13:48:57.794Z,4.63
2023-03-21T13:51:47.412Z,2.80
2023-03-21T13:54:24.347Z,4.03
2023-03-21T13:56:55.328Z,5.32
2023-03-21T13:59:38.807Z,4.50
2023-03-21T14:02:28.374Z,4.72
2023-03-21T14:05:07.419Z,4.32
2023-03-21T14:07:41.565Z,3.10
2023-03-21T14:10:22.065Z,3.67
2023-03-21T14:12:50.510Z,7.97
2023-03-21T14:15:23.022Z,3.67
2023-03-21T14:17:52.335Z,2.33
2023-03-21T14:20:24.221Z,3.40
2023-03-21T14:22:52.297Z,3.22
2023-03-21T14:25:24.458Z,2.83
2023-03-21T14:27:56.861Z,3.63
2023-03-21T14:30:28.237Z,4.88
2023-03-21T14:32:59.839Z,5.43
2023-03-21T14:35:31.325Z,5.68
2023-03-21T14:38:02.449Z,2.80
2023-03-21T14:40:31.930Z,2.80
2023-03-21T14:43:06.399Z,2.83
2023-03-21T14:45:37.442Z,3.05
2023-03-21T14:48:07.796Z,3.22
2023-03-21T14:50:41.828Z,3.90
2023-03-21T14:53:16.613Z,3.88
2023-03-21T14:55:48.719Z,2.67
2023-03-21T14:58:19.216Z,3.40
2023-03-21T15:00:50.562Z,3.47
2023-03-21T15:03:19.753Z,3.13
2023-03-21T15:05:48.014Z,2.58
2023-03-21T15:08:18.085Z,2.88
2023-03-21T15:11:06.247Z,3.17
2023-03-21T15:13:38.094Z,2.17
2023-03-21T15:16:06.952Z,3.10
2023-03-21T15:18:39.056Z,4.75
2023-03-21T15:21:12.040Z,3.35
2023-03-21T15:23:42.675Z,3.03
2023-03-21T15:26:17.612Z,2.78
2023-03-21T15:28:47.730Z,3.25
2023-03-21T15:31:19.187Z,2.78
2023-03-21T15:33:48.679Z,1.75
2023-03-21T15:36:22.198Z,3.92
2023-03-21T15:38:51.352Z,4.15
2023-03-21T15:41:28.810Z,1.60
2023-03-21T15:44:03.603Z,2.95
2023-03-21T15:46:43.447Z,2.97
2023-03-21T15:49:21.145Z,3.63
2023-03-21T15:51:53.388Z,2.70
2023-03-21T15:56:56.588Z,4.65
2023-03-21T15:59:28.068Z,2.35
2023-03-21T16:01:56.135Z,1.65
2023-03-21T16:04:25.895Z,4.00
2023-03-21T16:06:59.265Z,1.75
2023-03-21T16:09:27.590Z,4.53
2023-03-21T16:11:58.746Z,4.18
2023-03-21T16:14:28.528Z,3.25
2023-03-21T16:16:59.074Z,3.33
2023-03-21T16:19:29.546Z,2.67
2023-03-21T16:21:57.508Z,2.83
2023-03-21T16:24:25.459Z,2.72
2023-03-21T16:26:53.502Z,1.98
2023-03-21T16:29:22.902Z,2.25
2023-03-21T16:31:51.005Z,6.10
2023-03-21T16:34:18.997Z,6.10
2023-03-21T16:36:47.918Z,1.70
2023-03-21T16:39:19.432Z,3.22
2023-03-21T16:41:48.052Z,2.60
2023-03-21T16:44:16.074Z,1.60
2023-03-21T16:46:47.144Z,5.63
2023-03-21T16:49:24.570Z,3.33
2023-03-21T16:51:53.635Z,4.32
2023-03-21T16:54:21.931Z,3.15
2023-03-21T16:56:51.582Z,2.30
2023-03-21T16:59:19.640Z,4.30
2023-03-21T17:01:49.171Z,5.60
2023-03-21T17:04:18.177Z,4.85
2023-03-21T17:06:48.524Z,2.40
2023-03-21T17:09:19.035Z,3.35
2023-03-21T17:11:47.036Z,2.25
2023-03-21T17:14:17.930Z,4.72
2023-03-21T17:16:46.025Z,5.80
2023-03-21T17:19:18.162Z,4.93
2023-03-21T17:21:46.541Z,3.72
2023-03-21T17:24:14.725Z,3.65
2023-03-21T17:26:42.777Z,2.63
2023-03-21T17:29:13.183Z,4.22
2023-03-21T17:31:41.228Z,6.22
2023-03-21T17:34:09.799Z,2.53
2023-03-21T17:36:41.416Z,3.80
2023-03-21T17:39:13.901Z,3.13
2023-03-21T17:41:42.183Z,2.30
2023-03-21T17:44:10.145Z,2.92
2023-03-21T17:46:38.461Z,4.43
2023-03-21T17:49:07.437Z,2.67
2023-03-21T17:51:35.364Z,3.15
2023-03-21T17:54:06.033Z,3.45
2023-03-21T17:56:37.477Z,2.40
2023-03-21T17:59:07.264Z,2.20
2023-03-21T18:01:35.967Z,3.85
2023-03-21T18:04:05.245Z,2.38
2023-03-21T18:06:35.150Z,2.33
2023-03-21T18:09:07.799Z,2.13
2023-03-21T18:11:35.807Z,2.83
2023-03-21T18:14:15.463Z,2.67
2023-03-21T18:16:44.269Z,2.00
2023-03-21T18:19:15.061Z,4.75
2023-03-21T18:21:45.330Z,3.08
2023-03-21T18:24:15.862Z,2.35
2023-03-21T18:26:44.068Z,2.38
2023-03-21T18:32:07.699Z,4.82
2023-03-21T18:34:38.850Z,4.60
2023-03-21T18:37:07.965Z,3.38
2023-03-21T18:39:38.202Z,2.63
2023-03-21T18:42:06.821Z,2.08
2023-03-21T18:44:40.014Z,2.40
2023-03-21T18:47:08.661Z,2.25
2023-03-21T18:52:26.421Z,1.67
2023-03-21T18:54:55.913Z,2.03
2023-03-21T18:57:36.422Z,2.65
2023-03-21T19:00:12.651Z,3.60
2023-03-21T19:02:46.319Z,2.22
2023-03-21T19:05:16.727Z,2.22
2023-03-21T19:07:44.716Z,1.83
2023-03-21T19:10:18.553Z,2.92
2023-03-21T19:12:47.800Z,2.17
2023-03-21T19:15:17.958Z,2.05
2023-03-21T19:18:26.582Z,1.65
2023-03-21T19:20:34.640Z,2.25
2023-03-21T19:23:03.255Z,2.55
2023-03-21T19:25:35.667Z,2.65
2023-03-21T19:28:03.862Z,4.28
2023-03-21T19:30:31.942Z,1.90
2023-03-21T19:32:59.871Z,2.33
2023-03-21T19:35:28.816Z,4.50
2023-03-21T19:37:59.797Z,1.88
2023-03-21T19:40:27.962Z,2.35
2023-03-21T19:42:57.644Z,3.08
2023-03-21T19:45:26.169Z,2.63
2023-03-21T19:47:54.470Z,3.05
2023-03-21T19:50:49.355Z,2.95
2023-03-21T19:53:16.681Z,2.83
2023-03-21T19:55:44.723Z,2.83
2023-03-21T19:58:16.198Z,3.22
2023-03-21T20:00:44.185Z,2.38
2023-03-21T20:03:12.428Z,2.85
2023-03-21T20:05:42.479Z,2.92
2023-03-21T20:08:11.087Z,3.17
2023-03-21T20:10:39.522Z,3.55
2023-03-21T20:13:07.793Z,3.67
2023-03-21T20:15:45.938Z,3.40
2023-03-21T20:18:15.929Z,2.60
2023-03-21T20:20:44.124Z,2.08
2023-03-21T20:23:12.118Z,3.28
2023-03-21T20:25:41.203Z,3.72
2023-03-21T20:28:24.705Z,1.95
2023-03-21T20:30:58.517Z,2.88
2023-03-21T20:33:26.822Z,3.92
2023-03-21T20:38:53.082Z,3.75
2023-03-21T20:41:21.022Z,3.10
2023-03-21T20:46:38.301Z,3.95
2023-03-21T20:49:07.526Z,2.63
2023-03-21T20:54:24.161Z,3.42
2023-03-21T20:56:52.219Z,3.30
2023-03-21T20:59:26.451Z,2.67
2023-03-21T21:01:57.458Z,3.40
2023-03-21T21:04:44.354Z,3.35
2023-03-21T21:07:16.176Z,4.00
2023-03-21T21:09:44.729Z,2.25
2023-03-21T21:12:14.387Z,5.15
2023-03-21T21:14:43.656Z,4.90
2023-03-21T21:17:35.213Z,4.82
2023-03-21T21:20:16.257Z,2.58
2023-03-21T21:22:58.607Z,3.72
2023-03-21T21:25:28.933Z,3.67
2023-03-21T21:27:57.008Z,3.85
2023-03-21T21:30:25.185Z,4.38
2023-03-21T21:32:54.552Z,4.22
2023-03-21T21:35:22.780Z,3.75
2023-03-21T21:37:51.188Z,3.70
2023-03-21T21:40:23.235Z,6.07
2023-03-21T21:42:51.301Z,4.18
2023-03-21T21:45:22.345Z,4.30
2023-03-21T21:47:50.995Z,4.18
2023-03-21T21:50:22.337Z,5.38
2023-03-21T21:52:54.388Z,2.95
2023-03-21T21:55:23.065Z,2.83
2023-03-21T21:57:58.077Z,3.50
2023-03-21T22:00:27.261Z,3.30
2023-03-21T22:02:55.931Z,3.88
2023-03-21T22:05:25.844Z,4.28
2023-03-21T22:07:57.194Z,4.07
2023-03-21T22:10:27.511Z,4.13
2023-03-21T22:12:55.536Z,3.42
2023-03-21T22:15:23.876Z,3.78
2023-03-21T22:17:52.017Z,3.03
2023-03-21T22:20:21.663Z,4.95
2023-03-21T22:22:51.163Z,3.35
2023-03-21T22:25:19.647Z,3.70
2023-03-21T22:27:47.628Z,4.10
2023-03-21T22:30:18.637Z,4.15
2023-03-21T22:32:56.374Z,4.60
2023-03-21T22:35:31.205Z,2.83
2023-03-21T22:38:00.573Z,4.63
2023-03-21T22:40:28.565Z,4.63
2023-03-21T22:42:56.433Z,4.97
2023-03-21T22:45:28.114Z,6.03
2023-03-21T22:47:56.182Z,3.33
2023-03-21T22:50:24.142Z,5.82
2023-03-21T22:52:52.008Z,3.30
2023-03-21T22:55:21.292Z,3.67
2023-03-21T22:57:49.286Z,3.53
2023-03-21T23:00:18.414Z,2.45
2023-03-21T23:02:46.453Z,2.67
2023-03-21T23:05:14.589Z,3.45
2023-03-21T23:07:42.607Z,3.10
2023-03-21T23:10:12.664Z,3.38
2023-03-21T23:12:42.325Z,3.53
2023-03-21T23:15:11.475Z,2.75
2023-03-21T23:17:39.312Z,3.63
2023-03-21T23:20:08.551Z,2.72
2023-03-21T23:22:37.060Z,2.67
2023-03-21T23:25:05.669Z,3.33
2023-03-21T23:27:35.237Z,3.28
2023-03-21T23:30:06.323Z,4.15
2023-03-21T23:32:34.499Z,2.97
2023-03-21T23:35:02.458Z,3.67
2023-03-21T23:37:30.913Z,2.63
2023-03-21T23:39:58.791Z,4.15
2023-03-21T23:42:27.050Z,4.35
2023-03-21T23:44:54.971Z,3.08
2023-03-21T23:47:24.276Z,4.40
2023-03-21T23:49:52.790Z,2.60
2023-03-21T23:52:21.390Z,3.85
2023-03-21T23:54:49.468Z,4.25
2023-03-21T23:57:18.028Z,4.57
2023-03-21T23:59:46.880Z,4.45
